createdAt,value
2023-01-22T00:00:05.864Z,-1.82
2023-01-22T00:30:06.119Z,-1.85
2023-01-22T01:00:06.142Z,-1.86
2023-01-22T01:30:05.580Z,-1.88
2023-01-22T02:00:06.111Z,-1.76
2023-01-22T02:30:05.696Z,-1.56
2023-01-22T03:00:05.867Z,-1.47
2023-01-22T03:30:06.082Z,-1.45
2023-01-22T04:00:05.637Z,-1.34
2023-01-22T04:30:05.605Z,-1.42
2023-01-22T05:30:05.424Z,-1.35
2023-01-22T06:00:05.546Z,-1.34
2023-01-22T06:30:05.896Z,-1.3
2023-01-22T07:00:11.826Z,-1.36
2023-01-22T07:30:05.863Z,-1.24
2023-01-22T08:00:05.590Z,-0.9700001
2023-01-22T08:30:05.332Z,-0.93
2023-01-22T09:00:08.643Z,-0.67
2023-01-22T09:30:06.030Z,-0.37
2023-01-22T10:30:05.801Z,-0.24
2023-01-22T11:00:05.792Z,0.16
2023-01-22T12:00:07.778Z,0.26
2023-01-22T12:30:05.354Z,0.29
2023-01-22T13:00:07.118Z,0.41
2023-01-22T13:30:05.509Z,0.6
2023-01-22T14:00:05.674Z,4.21
2023-01-22T14:30:05.563Z,1.41
2023-01-22T15:00:06.983Z,0.85
2023-01-22T15:30:05.840Z,0.23
2023-01-22T16:00:04.893Z,-0.08
2023-01-22T16:30:05.560Z,-0.19
2023-01-22T17:00:05.167Z,-0.24
2023-01-22T18:00:04.951Z,-0.28
2023-01-22T18:30:05.431Z,-0.21
2023-01-22T19:00:05.885Z,-0.22
2023-01-22T19:30:05.046Z,-0.1
2023-01-22T20:00:04.817Z,-0.08
2023-01-22T20:30:05.821Z,-0.18
2023-01-22T21:30:05.018Z,-0.31
2023-01-22T22:00:04.462Z,-0.36
